首页
METAR-TAF:

METAR-TAF

机场 :

哥伦比亚, 南卡罗来纳州, 美国

纬度: 33-56-31N, 经度: 081-07-05W, 海拔: 71米

当前天气观测

该预报发布于30分钟前的22:56 UTC
风速3节,风向西转西南
温度 24°C
湿度 78%
气压 1016 hPa
能見度: 16.1公里
多云层高于6500英尺
阴天层高于9500英尺

METAR: KCAE 132256Z 24003KT 10SM BKN065 OVC095 24/20 A2999 RMK AO2 LTG DSNT W RAB09E37 SLP152 P0000 T02390200

时间: 19:26 (23:26 UTC)

预报

该预报发布于2小时和4分钟前的21:22 UTC
预报有效从13日的 21点(UTC)到 14日的 18点(UTC)
风速6节,风向西转西北
能見度: 10公里
多云层高于5000英尺
小阵雨
从 13日的 2230点(UTC)
风速6节,风向西转西北
能見度: 10公里
散云层高于2500英尺
阴天层高于5000英尺, 积雨云.
小阵雨, 附近有雷暴
短暂存在
从 13日的 23点(UTC)到 14日的 02点(UTC)
能見度: 4.8公里
阴天层高于2500英尺
阵雨
从 14日的 0800点(UTC)
风速3节,风向多变
能見度: 4.8公里
多云层高于1500英尺
轻雾
从 14日的 1400点(UTC)
风速6节,风向西
能見度: 10公里
散云层高于2500英尺
散云层高于25000英尺

TAF: KCAE 132122Z 1321/1418 30006KT P6SM -SHRA BKN050 FM132230 29006KT P6SM -SHRA VCTS SCT025 OVC050CB TEMPO 1323/1402 3SM SHRA OVC025 FM140800 VRB03KT 3SM BR BKN015 FM141400 27006KT P6SM SCT025 SCT250

超过4000个机场的气象观测和天气预报(METAR&TAF报告)。

可查询的气象台以黄色和红色小点在地图上表示。

将鼠标移到小点上方,可查看气象台名称。

然后点击查看天气观测和预报。

如需切换地图:点击带黑十字的绿色按钮放大地图;点击带横线的绿色按钮缩小地图;或者点击绿色箭头查看邻近地区的地图。


METAR-TAF: